Latest Coastal Weather Observations for Tewantin

IDQ60701

Issued at 8:01 am EST Saturday 23 May 2015 (issued every 10 minutes, with the page automatically refreshed every 10 minutes)

About coastal observations | Map of coastal stations | Coastal observations for QLD | Marine services | Other Formats
Station Details ID: 040908 Name: TEWANTIN RSL PARK Lat: -26.39 Lon: 153.04 Height: 6.4 m
Data from the previous 72 hours. | See also: Recent months at Tewantin
Date/Time
EST
Temp

°C
Wind Pressure Rain
since 9am
mm
Weather Cloud Vis
km
Sea
Height
m
Swell
Dir
 
Speed
knots
Gust
knots
hPa Trend Height
m
Period
s
Dir
23/08:00am 17.4 S 11 18 1021.4 - 0.0 - - - - - - -
23/07:30am 16.7 S 10 17 1021.1 - 0.0 - - - - - - -
23/07:00am 15.8 S 7 11 1020.9 - 0.0 - - - - - - -
23/06:30am 15.4 SSW 7 11 1020.4 - 0.0 - - - - - - -
23/06:00am 15.3 SSW 6 10 1020.1 - 0.0 - - - - - - -
23/05:30am 15.3 SSW 6 11 1019.8 - 0.0 - - - - - - -
23/05:00am 15.2 SSW 5 9 1019.5 - 0.0 - - - - - - -
23/04:30am 15.1 SSW 5 9 1019.5 - 0.0 - - - - - - -
23/04:00am 14.9 SSW 5 8 1019.2 - 0.0 - - - - - - -
23/03:30am 13.7 W 1 3 1019.4 - 0.0 - - - - - - -
23/03:00am 14.0 NW 1 4 1019.3 - 0.0 - - - - - - -
23/02:30am 14.6 SW 2 4 1019.1 - 0.0 - - - - - - -
23/02:00am 14.4 SW 2 4 1019.0 - 0.0 - - - - - - -
23/01:30am 13.6 WSW 1 4 1019.3 - 0.0 - - - - - - -
23/01:00am 14.6 SW 3 6 1019.4 - 0.0 - - - - - - -
23/12:30am 14.2 SW 2 4 1019.6 - 0.0 - - - - - - -
23/12:00am 14.7 SW 3 5 1019.4 - 0.0 - - - - - - -
 
Date/Time
EST
Temp

°C
Wind Pressure Rain
since 9am
mm
Weather Cloud Vis
km
Sea
Height
m
Swell
Dir
 
Speed
knots
Gust
knots
hPa Trend Height
m
Period
s
Dir
22/11:30pm 14.7 SW 4 7 1019.4 - 0.0 - - - - - - -
22/11:00pm 14.8 SW 6 9 1019.5 - 0.0 - - - - - - -
22/10:30pm 14.9 SW 4 7 1019.8 - 0.0 - - - - - - -
22/10:00pm 14.3 SW 3 5 1019.8 - 0.0 - - - - - - -
22/09:30pm 13.5 W 3 6 1019.5 - 0.0 - - - - - - -
22/09:00pm 14.7 SW 4 8 1019.6 - 0.0 - - - - - - -
22/08:30pm 15.0 SW 3 6 1019.3 - 0.0 - - - - - - -
22/08:00pm 15.2 SW 5 9 1018.9 - 0.0 - - - - - - -
22/07:30pm 15.3 SW 5 9 1018.7 - 0.0 - - - - - - -
22/07:00pm 15.0 SSW 4 7 1018.4 - 0.0 - - - - - - -
22/06:30pm 15.5 SW 6 11 1018.0 - 0.0 - - - - - - -
22/06:00pm 15.8 WSW 8 14 1017.2 - 0.0 - - - - - - -
22/05:30pm 16.4 SW 7 15 1017.4 - 0.0 - - - - - - -
22/05:00pm 17.0 WSW 5 10 1016.9 - 0.0 - - - - - - -
22/04:30pm 18.2 SW 7 15 1016.5 - 0.0 - - - - - - -
22/04:00pm 19.0 WSW 7 15 1016.1 - 0.0 - - - - - - -
22/03:30pm 19.5 SW 5 9 1015.8 - 0.0 - - - - - - -
22/03:00pm 19.6 SW 7 13 1015.7 - 0.0 - - - - - - -
22/02:30pm 20.1 SW 8 15 1015.7 - 0.0 - - - - - - -
22/02:00pm 21.0 WSW 7 15 1015.5 - 0.0 - - - - - - -
22/01:30pm 21.4 SW 6 10 1015.6 - 0.0 - - - - - - -
22/01:00pm 20.8 WSW 7 14 1015.9 - 0.0 - - - - - - -
22/12:30pm 20.8 WSW 7 13 1016.2 - 0.0 - - - - - - -
22/12:00pm 20.7 SW 5 9 1016.6 - 0.0 - - - - - - -
22/11:30am 20.3 SW 7 11 1016.9 - 0.0 - - - - - - -
22/11:00am 19.7 W 6 13 1017.4 - 0.0 - - - - - - -
22/10:30am 19.9 WSW 5 10 1017.6 - 0.0 - - - - - - -
22/10:00am 19.2 WSW 6 12 1017.8 - 0.0 - - - - - - -
22/09:30am 19.1 WSW 6 11 1017.9 - 0.0 - - - - - - -
22/09:00am 18.9 W 5 8 1017.8 - 4.2 - - - - - - -
22/08:30am 18.5 W 2 5 1017.9 - 4.2 - - - - - - -
22/08:00am 17.4 N 3 5 1017.6 - 4.2 - - - - - - -
22/07:30am 15.6 SSE 3 5 1017.7 - 4.2 - - - - - - -
22/07:00am 16.5 SW 6 12 1017.2 - 4.2 - - - - - - -
22/06:30am 17.0 CALM 0 0 1016.7 - 4.2 - - - - - - -
22/06:00am 16.9 CALM 0 0 1016.5 - 4.2 Recent precip. - - - - - -
22/05:30am 16.9 NW 2 4 1016.1 - 4.2 - - - - - - -
22/05:00am 17.0 W 2 4 1015.8 - 4.0 - - - - - - -
22/04:30am 17.0 CALM 0 3 1015.5 - 4.0 - - - - - - -
22/04:00am 17.1 CALM 0 4 1015.7 - 4.0 - - - - - - -
22/03:30am 17.1 CALM 0 0 1016.3 - 4.0 - - - - - - -
22/03:00am 17.1 W 2 4 1016.4 - 3.4 Rain - - - - - -
22/02:30am 17.1 WNW 1 3 1016.4 - 3.0 - - - - - - -
22/02:00am 17.2 CALM 0 3 1016.5 - 2.6 - - - - - - -
22/01:30am 17.4 W 1 4 1016.9 - 1.4 - - - - - - -
22/01:00am 17.6 SW 3 5 1016.8 - 1.0 - - - - - - -
22/12:30am 18.3 WSW 3 5 1017.5 - 0.2 - - - - - - -
22/12:00am 19.3 WSW 4 6 1017.5 - 0.0 - - - - - - -
 
Date/Time
EST
Temp

°C
Wind Pressure Rain
since 9am
mm
Weather Cloud Vis
km
Sea
Height
m
Swell
Dir
 
Speed
knots
Gust
knots
hPa Trend Height
m
Period
s
Dir
21/11:30pm 19.5 CALM 0 0 1017.3 - 0.0 - - - - - - -
21/11:00pm 19.7 CALM 0 0 1017.3 - 0.0 - - - - - - -
21/10:30pm 19.7 CALM 0 0 1017.4 - 0.0 - - - - - - -
21/10:00pm 19.2 WSW 3 5 1017.6 - 0.0 - - - - - - -
21/09:30pm 19.7 CALM 0 0 1017.5 - 0.0 - - - - - - -
21/09:00pm 20.3 CALM 0 0 1017.7 - 0.0 - - - - - - -
21/08:30pm 20.8 CALM 0 0 1017.5 - 0.0 - - - - - - -
21/08:00pm 21.4 SSW 3 5 1017.6 - 0.0 - - - - - - -
21/07:30pm 21.5 S 4 6 1017.5 - 0.0 - - - - - - -
21/07:00pm 21.7 SSW 5 7 1017.3 - 0.0 - - - - - - -
21/06:30pm 22.1 S 6 10 1016.9 - 0.0 - - - - - - -
21/06:00pm 22.8 S 9 15 1016.6 - 0.0 - - - - - - -
21/05:30pm 22.6 NNE 3 5 1015.9 - 0.0 - - - - - - -
21/05:00pm 23.1 NNE 3 5 1015.7 - 0.0 - - - - - - -
21/04:30pm 24.0 NE 4 6 1015.4 - 0.0 - - - - - - -
21/04:00pm 24.7 NE 2 4 1015.4 - 0.0 - - - - - - -
21/03:30pm 25.9 W 2 5 1015.2 - 0.0 - - - - - - -
21/03:00pm 26.4 WSW 2 6 1015.0 - 0.0 - - - - - - -
21/02:30pm 26.6 WNW 5 7 1015.1 - 0.0 - - - - - - -
21/02:00pm 26.5 WSW 5 8 1015.4 - 0.0 - - - - - - -
21/01:30pm 26.9 WSW 5 9 1015.5 - 0.0 - - - - - - -
21/01:00pm 27.1 NW 4 8 1015.9 - 0.0 - - - - - - -
21/12:30pm 26.7 WNW 5 10 1016.4 - 0.0 - - - - - - -
21/12:00pm 25.8 NW 7 11 1017.0 - 0.0 - - - - - - -
21/11:30am 25.9 NW 5 10 1017.9 - 0.0 - - - - - - -
21/11:00am 24.2 WNW 5 8 1018.6 - 0.0 - - - - - - -
21/10:30am 23.4 W 4 10 1019.0 - 0.0 - - - - - - -
21/10:00am 23.6 NW 3 7 1019.0 - 0.0 - - - - - - -
21/09:30am 21.8 N 3 5 1019.3 - 0.0 - - - - - - -
21/09:00am 20.4 N 5 7 1019.6 - 0.0 - - - - - - -
21/08:30am 20.1 NW 3 6 1019.5 - 0.0 - - - - - - -
21/08:00am 19.2 WNW 4 6 1019.6 - 0.0 - - - - - - -
21/07:30am 18.7 NW 4 7 1019.1 - 0.0 - - - - - - -
21/07:00am 17.6 NW 4 6 1019.0 - 0.0 - - - - - - -
21/06:30am 17.0 NW 4 6 1018.7 - 0.0 - - - - - - -
21/06:00am 16.7 NNW 1 4 1018.3 - 0.0 - - - - - - -
21/05:30am 16.7 CALM 0 0 1018.1 - 0.0 - - - - - - -
21/05:00am 16.9 CALM 0 0 1017.9 - 0.0 - - - - - - -
21/04:30am 17.1 CALM 0 0 1017.8 - 0.0 - - - - - - -
21/04:00am 16.6 CALM 0 0 1018.0 - 0.0 - - - - - - -
21/03:30am 16.9 CALM 0 3 1017.8 - 0.0 - - - - - - -
21/03:00am 17.3 CALM 0 0 1017.9 - 0.0 - - - - - - -
21/02:30am 17.7 CALM 0 0 1018.0 - 0.0 - - - - - - -
21/02:00am 17.6 CALM 0 0 1018.2 - 0.0 - - - - - - -
21/01:30am 17.8 CALM 0 0 1018.4 - 0.0 - - - - - - -
21/01:00am 17.9 CALM 0 0 1018.8 - 0.0 - - - - - - -
21/12:30am 18.2 CALM 0 3 1018.9 - 0.0 - - - - - - -
21/12:00am 18.1 CALM 0 0 1019.2 - 0.0 - - - - - - -
 
Date/Time
EST
Temp

°C
Wind Pressure Rain
since 9am
mm
Weather Cloud Vis
km
Sea
Height
m
Swell
Dir
 
Speed
knots
Gust
knots
hPa Trend Height
m
Period
s
Dir
20/11:30pm 18.5 CALM 0 0 1019.2 - 0.0 - - - - - - -
20/11:00pm 18.7 NNW 1 3 1019.2 - 0.0 - - - - - - -
20/10:30pm 18.9 CALM 0 0 1019.3 - 0.0 - - - - - - -
20/10:00pm 18.9 CALM 0 0 1019.5 - 0.0 - - - - - - -
20/09:30pm 18.9 CALM 0 3 1019.4 - 0.0 - - - - - - -
20/09:00pm 19.3 NW 2 4 1019.4 - 0.0 - - - - - - -
20/08:30pm 19.5 CALM 0 0 1019.2 - 0.0 - - - - - - -
20/08:00pm 19.8 CALM 0 0 1019.3 - 0.0 - - - - - - -
20/07:30pm 20.4 CALM 0 0 1019.1 - 0.0 - - - - - - -
20/07:00pm 20.7 SW 1 4 1019.0 - 0.0 - - - - - - -
20/06:30pm 21.0 N 3 4 1018.8 - 0.0 - - - - - - -
20/06:00pm 21.3 CALM 0 0 1018.7 - 0.0 - - - - - - -
20/05:30pm 21.4 NNE 1 3 1018.5 - 0.0 - - - - - - -
20/05:00pm 21.8 NE 5 7 1018.1 - 0.0 - - - - - - -
20/04:30pm 22.3 NE 6 10 1018.0 - 0.0 - - - - - - -
20/04:00pm 22.6 NE 6 9 1017.8 - 0.0 - - - - - - -
20/03:30pm 23.0 NE 4 6 1017.7 - 0.0 - - - - - - -
20/03:00pm 22.9 NNE 7 9 1017.6 - 0.0 - - - - - - -
20/02:30pm 23.4 NNE 6 9 1017.7 - 0.0 - - - - - - -
20/02:00pm 23.9 NNE 6 9 1017.6 - 0.0 - - - - - - -
20/01:30pm 23.9 NNE 6 9 1017.8 - 0.0 - - - - - - -
20/01:00pm 24.3 NNE 6 9 1018.3 - 0.0 - - - - - - -
20/12:30pm 23.9 NNE 7 10 1018.6 - 0.0 - - - - - - -
20/12:00pm 24.7 NE 6 8 1018.9 - 0.0 - - - - - - -
20/11:30am 25.1 NE 3 5 1019.5 - 0.0 - - - - - - -
20/11:00am 24.9 NNE 5 7 1019.8 - 0.0 - - - - - - -
20/10:30am 24.5 NE 4 6 1020.1 - 0.0 - - - - - - -
20/10:00am 24.0 NNW 3 5 1020.5 - 0.0 - - - - - - -
20/09:30am 23.4 NNW 2 4 1020.7 - 0.0 - - - - - - -
20/09:00am 22.1 NNW 1 4 1020.5 - - - - - - - - -
20/08:30am 21.3 CALM 0 0 1020.4 - - - - - - - - -

Other Formats:

Comma delimited format used in spreadsheet applications
http://www.bom.gov.au/fwo/IDQ60701/IDQ60701.94570.axf

JavaScript Object Notation format (JSON) in row-major order
http://www.bom.gov.au/fwo/IDQ60701/IDQ60701.94570.json